Terminal Aerodrome Forecast
Issued by NWS Blacksburg, VA

Home | Current Version | Previous Version | Text Only | Print | Product List | Glossary On
Versions: 1 2 3 4 5 6 7 8 9 10 11 12 13 14 15 16 17 18 19 20 21 22 23 24 25 26
000
FTUS41 KRNK 190520
TAFROA
TAF
KROA 190520Z 1906/2006 00000KT P6SM SCT050 BKN100
     FM190800 08006KT P6SM SCT020 OVC035
     FM191100 08006KT 5SM -DZ BR BKN007 OVC015
     FM191500 08008KT 6SM BR OVC022
     FM192000 10005KT P6SM BKN035 BKN050
     FM200100 10003KT P6SM SCT010 BKN025=

USA.gov is the U.S. government's official web portal to all federal, state and local government web resources and services.